Time;durP1;ratioP1;P1;durP2;ratioP2;P2;SDS_P1;SDS_P2;PMS_P1;PMS_P2;Temp;Humidity;BMP_temperature;BMP_pressure;BME280_temperature;BME280_humidity;BME280_pressure;Samples;Min_cycle;Max_cycle;Signal;HPM_P1;HPM_P2
2022/05/12 00:01:14;;;;;;;4.4;4;;;;;;;16.01;75.8125;939.2653;;;;
2022/05/12 00:03:39;;;;;;;5.5;4.4;;;;;;;16.01;75.95117;939.2629;;;;
2022/05/12 00:06:32;;;;;;;6.3;4.2;;;;;;;16.02;76.02148;939.2564;;;;
2022/05/12 00:08:44;;;;;;;7.1;4.6;;;;;;;16.06;75.61328;939.2715;;;;
2022/05/12 00:11:12;;;;;;;5.6;4.3;;;;;;;15.84;76.45313;939.2701;;;;
2022/05/12 00:13:37;;;;;;;5.1;4.1;;;;;;;15.66;76.99902;939.302;;;;
2022/05/12 00:16:08;;;;;;;4.5;4;;;;;;;15.5;77.65332;939.2986;;;;
2022/05/12 00:18:35;;;;;;;5.1;3.8;;;;;;;15.44;77.99023;939.2991;;;;
2022/05/12 00:21:00;;;;;;;7.2;4;;;;;;;15.38;78.31348;939.296;;;;
2022/05/12 00:24:03;;;;;;;5.3;4.4;;;;;;;15.4;78.25879;939.3441;;;;
2022/05/12 00:26:28;;;;;;;4.6;4.1;;;;;;;15.38;78.34668;939.2559;;;;
2022/05/12 00:28:53;;;;;;;7.4;4.3;;;;;;;15.4;78.36328;939.2798;;;;
2022/05/12 00:31:24;;;;;;;6.2;4.6;;;;;;;15.33;78.65234;939.2836;;;;
2022/05/12 00:33:49;;;;;;;5.7;4.4;;;;;;;15.47;78.18945;939.3069;;;;
2022/05/12 00:36:19;;;;;;;6.1;4.3;;;;;;;15.5;77.9541;939.2521;;;;
2022/05/12 00:38:44;;;;;;;5.5;4.5;;;;;;;15.51;77.59766;939.3443;;;;
2022/05/12 00:41:36;;;;;;;4.6;4.1;;;;;;;15.63;76.91309;939.307;;;;
2022/05/12 00:44:02;;;;;;;4.9;4.2;;;;;;;15.68;76.49512;939.2922;;;;
2022/05/12 00:46:26;;;;;;;6.3;4.7;;;;;;;15.56;77.24707;939.3328;;;;
2022/05/12 00:48:53;;;;;;;5.3;4.2;;;;;;;15.43;77.89453;939.2744;;;;
2022/05/12 00:51:18;;;;;;;6;4.6;;;;;;;15.17;79.07129;939.2444;;;;
2022/05/12 00:53:43;;;;;;;6.2;4.4;;;;;;;15.35;78.46875;939.2842;;;;
2022/05/12 00:56:08;;;;;;;10.7;5.2;;;;;;;15.38;77.97754;939.3186;;;;
2022/05/12 00:58:33;;;;;;;6.5;4.7;;;;;;;15.48;77.65039;939.31;;;;
2022/05/12 01:00:58;;;;;;;5.3;4.3;;;;;;;15.43;77.67676;939.3145;;;;
2022/05/12 01:03:26;;;;;;;6.6;4.9;;;;;;;15.53;77.25391;939.2888;;;;
2022/05/12 01:05:51;;;;;;;6.5;4.9;;;;;;;15.31;78.02344;939.2428;;;;
2022/05/12 01:08:18;;;;;;;7.4;4.6;;;;;;;15.29;78.29785;939.3159;;;;
2022/05/12 01:10:44;;;;;;;7.4;4.5;;;;;;;15.28;78.14551;939.3489;;;;
2022/05/12 01:13:08;;;;;;;5.5;4.6;;;;;;;15.16;78.55176;939.2772;;;;
2022/05/12 01:15:39;;;;;;;4.9;4.4;;;;;;;15.18;78.68164;939.3076;;;;
2022/05/12 01:18:07;;;;;;;6.4;4.6;;;;;;;15.2;78.40625;939.2906;;;;
2022/05/12 01:20:33;;;;;;;6.1;4.8;;;;;;;15.08;79.03223;939.3315;;;;
2022/05/12 01:22:58;;;;;;;8.5;5;;;;;;;15.03;79.30078;939.3278;;;;
2022/05/12 01:25:23;;;;;;;5.8;4.4;;;;;;;14.94;79.79199;939.3714;;;;
2022/05/12 01:27:48;;;;;;;5;4.4;;;;;;;14.89;79.91992;939.3676;;;;
2022/05/12 01:30:18;;;;;;;5.3;4.3;;;;;;;14.83;80.24316;939.4144;;;;
2022/05/12 01:32:48;;;;;;;5.3;4.5;;;;;;;14.79;80.24805;939.3301;;;;
2022/05/12 01:35:43;;;;;;;6.1;4.9;;;;;;;14.65;80.99316;939.3565;;;;
2022/05/12 01:38:13;;;;;;;7.5;4.8;;;;;;;14.6;81.45801;939.4461;;;;
2022/05/12 01:40:37;;;;;;;7.2;4.6;;;;;;;14.57;81.65039;939.4207;;;;
2022/05/12 01:43:06;;;;;;;8.3;4.6;;;;;;;14.55;81.64355;939.4392;;;;
2022/05/12 01:45:36;;;;;;;5.3;4.7;;;;;;;14.51;82.0166;939.4128;;;;
2022/05/12 01:48:34;;;;;;;6.4;4.8;;;;;;;14.65;81.27148;939.4133;;;;
2022/05/12 01:51:01;;;;;;;6.6;4.8;;;;;;;14.86;80.13379;939.3958;;;;
2022/05/12 01:53:27;;;;;;;6.4;4.8;;;;;;;14.97;79.50781;939.4473;;;;
2022/05/12 01:55:55;;;;;;;5.5;4.9;;;;;;;15.02;79.34375;939.4819;;;;
2022/05/12 01:58:21;;;;;;;5.8;4.6;;;;;;;15.03;79.23145;939.5106;;;;
2022/05/12 02:00:48;;;;;;;5.9;4.7;;;;;;;15.1;78.94434;939.515;;;;
2022/05/12 02:03:13;;;;;;;6;4.8;;;;;;;15.06;78.63574;939.5025;;;;
2022/05/12 02:05:38;;;;;;;5.4;4.1;;;;;;;15.03;78.62012;939.4802;;;;
2022/05/12 02:08:04;;;;;;;6.2;4.2;;;;;;;15.08;78.30469;939.552;;;;
2022/05/12 02:10:29;;;;;;;6;4.4;;;;;;;15.04;78.13672;939.5644;;;;
2022/05/12 02:12:56;;;;;;;4.5;4.1;;;;;;;14.94;78.71875;939.5765;;;;
2022/05/12 02:15:21;;;;;;;5.8;4.8;;;;;;;14.77;79.4375;939.5058;;;;
2022/05/12 02:17:53;;;;;;;5.8;4.5;;;;;;;14.72;79.64844;939.5188;;;;
2022/05/12 02:20:24;;;;;;;4.8;4.3;;;;;;;14.55;80.49316;939.5168;;;;
2022/05/12 02:22:50;;;;;;;5.6;4.4;;;;;;;14.59;80.4668;939.5198;;;;
2022/05/12 02:25:19;;;;;;;4.8;4.1;;;;;;;14.45;81.21191;939.5469;;;;
2022/05/12 02:27:45;;;;;;;6.6;4.9;;;;;;;14.41;81.28418;939.5633;;;;
2022/05/12 02:30:09;;;;;;;6.3;5;;;;;;;14.26;82.37402;939.5292;;;;
2022/05/12 02:32:39;;;;;;;5.8;4.6;;;;;;;14.25;82.36133;939.4756;;;;
2022/05/12 02:35:04;;;;;;;5.7;4.3;;;;;;;14.26;82.38379;939.4756;;;;
2022/05/12 02:37:34;;;;;;;9.5;5.2;;;;;;;14.27;82.59473;939.4483;;;;
2022/05/12 02:40:01;;;;;;;5.4;4.6;;;;;;;14.36;82.08008;939.4705;;;;
2022/05/12 02:42:27;;;;;;;8.2;5.7;;;;;;;14.44;81.7959;939.4844;;;;
2022/05/12 02:44:57;;;;;;;6.5;5.1;;;;;;;14.47;81.3418;939.5236;;;;
2022/05/12 02:47:28;;;;;;;7.5;4.9;;;;;;;14.41;81.62012;939.5449;;;;
2022/05/12 02:50:33;;;;;;;5;4.5;;;;;;;14.43;81.58887;939.5747;;;;
2022/05/12 02:53:05;;;;;;;5.3;4.8;;;;;;;14.35;81.86133;939.5706;;;;
2022/05/12 02:55:30;;;;;;;7;5;;;;;;;14.4;81.54688;939.524;;;;
2022/05/12 02:57:56;;;;;;;5.6;5;;;;;;;14.38;81.41699;939.5465;;;;
2022/05/12 03:00:25;;;;;;;6.2;4.6;;;;;;;14.29;81.94336;939.5251;;;;
2022/05/12 03:02:50;;;;;;;6.5;4.8;;;;;;;14.22;82.35449;939.5614;;;;
2022/05/12 03:06:14;;;;;;;5.7;5;;;;;;;14.13;83.0166;939.5333;;;;
2022/05/12 03:08:43;;;;;;;6.9;5.4;;;;;;;14.1;83.27637;939.5213;;;;
2022/05/12 03:11:06;;;;;;;6.2;4.8;;;;;;;14.21;82.65137;939.5203;;;;
2022/05/12 03:13:32;;;;;;;5;4.4;;;;;;;14.26;82.17871;939.4395;;;;
2022/05/12 03:15:57;;;;;;;6.5;5.1;;;;;;;14.18;82.69238;939.5275;;;;
2022/05/12 03:18:25;;;;;;;6.4;4.6;;;;;;;14.15;82.76855;939.5516;;;;
2022/05/12 03:20:50;;;;;;;7.2;4.7;;;;;;;14.25;82.54395;939.5005;;;;
2022/05/12 03:23:17;;;;;;;6;4.2;;;;;;;14.34;81.80078;939.5082;;;;
2022/05/12 03:25:41;;;;;;;6.2;4.7;;;;;;;14.41;81.29688;939.4888;;;;
2022/05/12 03:28:06;;;;;;;6.6;5;;;;;;;14.37;81.42676;939.4849;;;;
2022/05/12 03:30:32;;;;;;;6.6;4.8;;;;;;;14.2;82.05176;939.5419;;;;
2022/05/12 03:32:57;;;;;;;6.9;5.1;;;;;;;14.16;82.56055;939.5148;;;;
2022/05/12 03:35:23;;;;;;;9.1;4.8;;;;;;;14.14;82.61719;939.5076;;;;
2022/05/12 03:37:49;;;;;;;5.4;4.6;;;;;;;14.12;82.84375;939.5309;;;;
2022/05/12 03:40:19;;;;;;;7.4;5.8;;;;;;;14.2;82.47754;939.473;;;;
2022/05/12 03:42:58;;;;;;;6.6;5.2;;;;;;;14.25;82.06152;939.5092;;;;
2022/05/12 03:45:22;;;;;;;7;5.6;;;;;;;14.37;81.74805;939.5698;;;;
2022/05/12 03:47:50;;;;;;;5.5;4.8;;;;;;;14.47;80.92676;939.5349;;;;
2022/05/12 03:50:16;;;;;;;8.7;5.6;;;;;;;14.59;80.90234;939.6442;;;;
2022/05/12 03:52:42;;;;;;;5;4.5;;;;;;;14.74;79.8125;939.6511;;;;
2022/05/12 03:55:07;;;;;;;6.5;4.5;;;;;;;14.74;79.91504;939.6752;;;;
2022/05/12 03:57:37;;;;;;;8.9;4.3;;;;;;;14.71;79.88867;939.6135;;;;
2022/05/12 04:00:03;;;;;;;7.9;5;;;;;;;14.84;79.43945;939.6638;;;;
2022/05/12 04:02:31;;;;;;;9.4;5.1;;;;;;;14.78;79.63477;939.6677;;;;
2022/05/12 04:04:56;;;;;;;9.9;5;;;;;;;14.67;80.07422;939.7139;;;;
2022/05/12 04:07:22;;;;;;;6.3;4.5;;;;;;;14.7;80.46191;939.6881;;;;
2022/05/12 04:09:47;;;;;;;8.3;5;;;;;;;14.74;79.93945;939.7472;;;;
2022/05/12 04:12:15;;;;;;;5.9;4.3;;;;;;;14.8;79.51172;939.7405;;;;
2022/05/12 04:14:40;;;;;;;5.3;4.4;;;;;;;14.94;79.15723;939.7714;;;;
2022/05/12 04:17:05;;;;;;;6.1;4.6;;;;;;;14.97;79.55469;939.8395;;;;
2022/05/12 04:19:33;;;;;;;9.3;4.8;;;;;;;15.16;78.2041;939.8244;;;;
2022/05/12 04:21:58;;;;;;;6.4;4.6;;;;;;;15.05;78.48438;939.873;;;;
2022/05/12 04:24:23;;;;;;;5.7;4.8;;;;;;;14.89;79.02051;939.8607;;;;
2022/05/12 04:26:49;;;;;;;6.7;5.1;;;;;;;14.82;79.5498;939.9484;;;;
2022/05/12 04:29:17;;;;;;;12.5;5.3;;;;;;;14.84;79.73926;939.9379;;;;
2022/05/12 04:31:43;;;;;;;8.4;5.1;;;;;;;14.93;79.24805;940.0168;;;;
2022/05/12 04:36:34;;;;;;;11.3;6.9;;;;;;;15.23;79.11719;940.0657;;;;
2022/05/12 04:38:59;;;;;;;10.3;6;;;;;;;15.37;78.12695;940.1226;;;;
2022/05/12 04:41:28;;;;;;;10.4;7;;;;;;;15.48;78.19336;940.1302;;;;
2022/05/12 04:43:58;;;;;;;18.1;12.6;;;;;;;15.56;78.43848;940.1852;;;;
2022/05/12 04:46:24;;;;;;;18.4;11.7;;;;;;;15.69;77.9873;940.257;;;;
2022/05/12 04:48:51;;;;;;;12.4;8.5;;;;;;;15.8;78.23926;940.1767;;;;
2022/05/12 04:51:17;;;;;;;8.6;7.3;;;;;;;15.92;76.93066;940.2058;;;;
2022/05/12 04:53:42;;;;;;;7.6;6.6;;;;;;;16.11;76.33984;940.2632;;;;
2022/05/12 04:56:09;;;;;;;6.6;5.5;;;;;;;16.27;76.14844;940.1833;;;;
2022/05/12 04:59:03;;;;;;;8.1;5.4;;;;;;;16.37;75.40039;940.1517;;;;
2022/05/12 05:01:28;;;;;;;10.2;6;;;;;;;16.52;74.69727;940.1924;;;;
2022/05/12 05:04:00;;;;;;;6.4;5.1;;;;;;;16.61;74.33105;940.2461;;;;
2022/05/12 05:06:23;;;;;;;10.5;5.6;;;;;;;16.74;75.01367;940.2405;;;;
2022/05/12 05:08:52;;;;;;;7.3;4.9;;;;;;;16.85;74.5459;940.2581;;;;
2022/05/12 05:14:46;;;;;;;6.7;5.2;;;;;;;16.93;75.19531;940.2933;;;;
2022/05/12 05:17:17;;;;;;;10.4;4.7;;;;;;;17.07;73.9668;940.2767;;;;
2022/05/12 05:19:43;;;;;;;6.2;4.5;;;;;;;17.11;72.99121;940.3911;;;;
2022/05/12 05:22:07;;;;;;;5.9;4.2;;;;;;;17.21;74.11914;940.4277;;;;
2022/05/12 05:24:34;;;;;;;6.4;4.5;;;;;;;17.43;72.86914;940.4521;;;;
2022/05/12 05:26:58;;;;;;;6.8;4.3;;;;;;;17.63;71.5332;940.5076;;;;
2022/05/12 05:29:24;;;;;;;9.2;4.7;;;;;;;17.83;70.32324;940.5005;;;;
2022/05/12 05:31:50;;;;;;;8.4;5;;;;;;;18.02;71.83984;940.5583;;;;
2022/05/12 05:34:15;;;;;;;7.2;4;;;;;;;18.17;71.02832;940.572;;;;
2022/05/12 05:36:44;;;;;;;6;4.6;;;;;;;18.4;73.07617;940.5396;;;;
2022/05/12 05:39:08;;;;;;;5.4;4.3;;;;;;;18.61;70.10938;940.5659;;;;
2022/05/12 05:41:36;;;;;;;7;4.3;;;;;;;19.07;68.49512;940.5844;;;;
2022/05/12 05:44:00;;;;;;;8.6;4;;;;;;;19.59;67.77148;940.6335;;;;
2022/05/12 05:46:31;;;;;;;5.4;3.4;;;;;;;20.25;65.04785;940.6747;;;;
2022/05/12 05:49:01;;;;;;;6.7;3.9;;;;;;;20.39;64.69531;940.6972;;;;
2022/05/12 05:53:58;;;;;;;13;3.4;;;;;;;21.86;58.64258;940.7093;;;;
2022/05/12 05:56:27;;;;;;;5.6;3.3;;;;;;;23.36;54.50098;940.6875;;;;
2022/05/12 05:58:52;;;;;;;4.6;3.3;;;;;;;23.57;53.0459;940.6958;;;;
2022/05/12 06:01:21;;;;;;;7.7;3;;;;;;;24.71;49.99805;940.741;;;;
2022/05/12 06:03:47;;;;;;;5.6;3.1;;;;;;;24.88;50.24023;940.8158;;;;
2022/05/12 06:06:14;;;;;;;6.3;4.2;;;;;;;24.93;47.16699;940.7466;;;;
2022/05/12 06:08:40;;;;;;;9.9;4.1;;;;;;;24.76;47.25488;940.7562;;;;
2022/05/12 06:11:06;;;;;;;7.4;4.3;;;;;;;24.7;47.33008;940.8149;;;;
2022/05/12 06:13:30;;;;;;;7.1;4.2;;;;;;;23.55;49.29102;940.8889;;;;
2022/05/12 06:15:58;;;;;;;6;3.9;;;;;;;22.66;51.78711;940.8633;;;;
2022/05/12 06:18:24;;;;;;;7.3;4.1;;;;;;;23.35;52.69043;940.8453;;;;
2022/05/12 06:20:52;;;;;;;8;3.6;;;;;;;24.27;49.06445;940.9103;;;;
2022/05/12 06:23:17;;;;;;;8.5;4;;;;;;;25.93;45.03809;940.9258;;;;
2022/05/12 06:25:46;;;;;;;6.1;4.3;;;;;;;26.85;43.53027;940.8405;;;;
2022/05/12 06:28:11;;;;;;;6.9;3.6;;;;;;;27.37;41.09082;940.8361;;;;
2022/05/12 06:30:37;;;;;;;8.2;4.4;;;;;;;27.47;41.52637;940.8616;;;;
2022/05/12 06:33:02;;;;;;;7.5;3.7;;;;;;;27.08;41.56152;940.9161;;;;
2022/05/12 06:35:31;;;;;;;5.4;3.5;;;;;;;26.34;41.75391;940.9075;;;;
2022/05/12 06:37:56;;;;;;;5.2;3.3;;;;;;;26.08;43.34863;940.9275;;;;
2022/05/12 06:40:23;;;;;;;4.9;3.2;;;;;;;26.29;41.32227;940.8756;;;;
2022/05/12 06:42:48;;;;;;;4.4;3.3;;;;;;;26.39;42.11328;940.8652;;;;
2022/05/12 06:45:20;;;;;;;5;3.5;;;;;;;26.55;41.80859;940.8879;;;;
2022/05/12 06:47:51;;;;;;;5.6;3.5;;;;;;;26.69;41.26465;940.8613;;;;
2022/05/12 06:50:21;;;;;;;4.9;3.2;;;;;;;26.56;41.69043;940.8698;;;;
2022/05/12 06:52:46;;;;;;;5.9;3.5;;;;;;;26.54;43.16895;940.8332;;;;
2022/05/12 06:55:14;;;;;;;4.4;3.7;;;;;;;26.24;45.49512;940.8892;;;;
2022/05/12 06:57:39;;;;;;;4.1;3.2;;;;;;;27.72;38.9375;940.9099;;;;
2022/05/12 07:00:09;;;;;;;5.1;3.4;;;;;;;28.46;36.83789;940.9119;;;;
2022/05/12 07:02:39;;;;;;;10.1;3.7;;;;;;;28.6;35.39844;940.8759;;;;
2022/05/12 07:05:04;;;;;;;5;2.9;;;;;;;29.08;36.04297;940.8965;;;;
2022/05/12 07:07:31;;;;;;;7.5;3.1;;;;;;;29.09;36.0791;940.9114;;;;
2022/05/12 07:09:56;;;;;;;3.7;3;;;;;;;29.22;35.55371;940.9325;;;;
2022/05/12 07:12:26;;;;;;;5.8;2.9;;;;;;;28.67;35.74805;940.9397;;;;
2022/05/12 07:14:52;;;;;;;4.1;3;;;;;;;27.24;37.46094;940.9986;;;;
2022/05/12 07:17:16;;;;;;;4.3;3.1;;;;;;;26.74;39.44434;940.9879;;;;
2022/05/12 07:28:10;;;;;;;16.5;4;;;;;;;25.36;43.06738;941.0251;;;;
2022/05/12 07:31:00;;;;;;;8.8;3.2;;;;;;;24.97;45.58984;941.0461;;;;
2022/05/12 07:33:58;;;;;;;12.7;4;;;;;;;25.1;43.19531;941.0923;;;;
2022/05/12 07:36:23;;;;;;;9.7;3.8;;;;;;;24.44;46.56152;941.0327;;;;
2022/05/12 07:38:49;;;;;;;3.5;3.1;;;;;;;25.03;44.02637;940.9943;;;;
2022/05/12 07:41:14;;;;;;;4.5;2.9;;;;;;;26.01;42.67969;940.9836;;;;
2022/05/12 07:43:41;;;;;;;4.7;3.2;;;;;;;26.82;39.46387;940.9636;;;;
2022/05/12 07:46:07;;;;;;;7.8;3;;;;;;;28.19;38.84766;940.9012;;;;
2022/05/12 07:48:36;;;;;;;3;2.7;;;;;;;29.13;36.37988;940.9093;;;;
2022/05/12 07:51:01;;;;;;;4.3;3.2;;;;;;;29.58;35.0459;940.8923;;;;
2022/05/12 07:53:28;;;;;;;5.6;3;;;;;;;29.26;36.10547;940.9353;;;;
2022/05/12 07:55:53;;;;;;;4.5;2.8;;;;;;;29.1;37.55664;940.9157;;;;
2022/05/12 07:58:18;;;;;;;3.1;2.8;;;;;;;28.98;36.52246;940.9127;;;;
2022/05/12 08:00:43;;;;;;;3.8;2.9;;;;;;;28.99;36.0127;940.8921;;;;
2022/05/12 08:03:11;;;;;;;7.3;2.7;;;;;;;29.41;35.11621;940.8914;;;;
2022/05/12 08:05:36;;;;;;;3.5;2.7;;;;;;;29.07;37.72168;940.9135;;;;
2022/05/12 08:08:04;;;;;;;3.2;2.8;;;;;;;29.11;36.43848;940.9026;;;;
2022/05/12 08:10:27;;;;;;;4.4;2.8;;;;;;;29.28;35.96387;940.8986;;;;
2022/05/12 08:12:57;;;;;;;5.5;2.7;;;;;;;29.05;35.74316;940.8817;;;;
2022/05/12 08:15:24;;;;;;;3.2;2.7;;;;;;;28.93;38.28027;940.8792;;;;
2022/05/12 08:17:47;;;;;;;4.1;2.8;;;;;;;28.75;38.05078;940.8678;;;;
2022/05/12 08:20:16;;;;;;;3.5;2.8;;;;;;;28.79;36.47168;940.876;;;;
2022/05/12 08:22:48;;;;;;;5.3;3.7;;;;;;;29.15;37.7998;940.8497;;;;
2022/05/12 08:25:13;;;;;;;4.8;2.8;;;;;;;29.2;37.13672;940.8139;;;;
2022/05/12 08:27:41;;;;;;;15.8;3.6;;;;;;;28.92;37.53027;940.8726;;;;
2022/05/12 08:30:06;;;;;;;4.5;3;;;;;;;29.18;36.01563;940.8436;;;;
2022/05/12 08:32:34;;;;;;;4.2;2.9;;;;;;;28.84;38.62988;940.8672;;;;
2022/05/12 08:34:59;;;;;;;3.2;2.9;;;;;;;28.9;39.06348;940.8373;;;;
2022/05/12 08:37:25;;;;;;;5.1;2.8;;;;;;;28.78;38.25586;940.7645;;;;
2022/05/12 08:39:51;;;;;;;5.7;2.7;;;;;;;28.7;38.80859;940.8633;;;;
2022/05/12 08:42:16;;;;;;;3.2;2.8;;;;;;;28.59;38.2998;940.8856;;;;
2022/05/12 08:44:44;;;;;;;3.2;2.9;;;;;;;28.89;39.33691;940.8997;;;;
2022/05/12 08:47:10;;;;;;;3.6;2.6;;;;;;;28.97;39.34277;940.8453;;;;
2022/05/12 08:49:35;;;;;;;5.3;3;;;;;;;29.94;37.07813;940.8384;;;;
2022/05/12 08:52:00;;;;;;;4.1;2.8;;;;;;;30.08;37.8418;940.8337;;;;
2022/05/12 08:54:28;;;;;;;3.4;2.6;;;;;;;31.88;34.34961;940.8222;;;;
2022/05/12 08:56:53;;;;;;;3.3;2.8;;;;;;;32.72;34.08887;940.8331;;;;
2022/05/12 08:59:18;;;;;;;2.7;2.4;;;;;;;33.91;30.42383;940.8466;;;;
2022/05/12 09:01:46;;;;;;;4;2.6;;;;;;;33.69;32.06836;940.8055;;;;
2022/05/12 09:04:14;;;;;;;6;2.8;;;;;;;33.91;32.76953;940.7274;;;;
2022/05/12 09:06:41;;;;;;;11.3;3.8;;;;;;;34.61;30.51855;940.7252;;;;
2022/05/12 09:09:06;;;;;;;3;2.3;;;;;;;34.29;31.4375;940.7659;;;;
2022/05/12 09:11:31;;;;;;;6.8;3;;;;;;;33.11;31.65527;940.7989;;;;
2022/05/12 09:13:56;;;;;;;4.8;3.5;;;;;;;33.17;31.40723;940.7573;;;;
2022/05/12 09:16:21;;;;;;;4.8;3.3;;;;;;;32.61;33.49219;940.7623;;;;
2022/05/12 09:18:46;;;;;;;9.1;4.2;;;;;;;32.75;31.35449;940.7731;;;;
2022/05/12 09:21:13;;;;;;;6.6;3.8;;;;;;;33.37;30.36328;940.7198;;;;
2022/05/12 09:23:38;;;;;;;4.4;2.6;;;;;;;32.45;31.53809;940.7589;;;;
2022/05/12 09:26:32;;;;;;;3.9;2.8;;;;;;;32.68;31.3623;940.7701;;;;
2022/05/12 09:28:58;;;;;;;4.4;2.5;;;;;;;33.06;30.61914;940.7692;;;;
2022/05/12 09:31:26;;;;;;;6.6;2.8;;;;;;;33.22;30.2207;940.7083;;;;
2022/05/12 09:33:51;;;;;;;7.4;2.8;;;;;;;33.22;30.01758;940.6699;;;;
2022/05/12 09:36:21;;;;;;;3.8;2.2;;;;;;;33.02;29.04297;940.6245;;;;
2022/05/12 09:38:46;;;;;;;5.3;2.5;;;;;;;32.49;30.26953;940.5834;;;;
2022/05/12 09:41:17;;;;;;;7.3;3;;;;;;;32.16;33.05176;940.5809;;;;
2022/05/12 09:43:42;;;;;;;3.3;2.3;;;;;;;32.3;32.65527;940.568;;;;
2022/05/12 09:46:09;;;;;;;3;2.4;;;;;;;32.61;29.82129;940.5072;;;;
2022/05/12 09:48:33;;;;;;;3;2.2;;;;;;;31.83;31.53027;940.5111;;;;
2022/05/12 09:50:59;;;;;;;2.7;2.3;;;;;;;30.58;35.05176;940.463;;;;
2022/05/12 09:53:24;;;;;;;9.3;2.5;;;;;;;30.74;32.06445;940.3486;;;;
2022/05/12 09:55:49;;;;;;;3.7;2.4;;;;;;;31.15;35.53809;940.3539;;;;
2022/05/12 09:58:18;;;;;;;6.4;2.1;;;;;;;31.03;34.41699;940.3076;;;;
2022/05/12 10:00:43;;;;;;;2.7;2.1;;;;;;;31.35;31.49707;940.2752;;;;
2022/05/12 10:08:11;;;;;;;4.5;2.5;;;;;;;32.54;32.24023;940.2371;;;;
2022/05/12 10:10:36;;;;;;;4.4;2.4;;;;;;;31.95;30.8916;940.2566;;;;
2022/05/12 10:13:01;;;;;;;3.4;2.2;;;;;;;32.45;31.38184;940.2433;;;;
2022/05/12 10:15:27;;;;;;;2.8;2.2;;;;;;;32.96;30.41992;940.196;;;;
2022/05/12 10:17:52;;;;;;;2.1;1.9;;;;;;;33.34;27.26074;940.1592;;;;
2022/05/12 10:20:18;;;;;;;3.4;2;;;;;;;34.2;27.79395;940.1561;;;;
2022/05/12 10:22:42;;;;;;;2.5;2.1;;;;;;;34.89;25.78613;940.1179;;;;
2022/05/12 10:25:13;;;;;;;2.8;2;;;;;;;35.08;26.78613;940.1533;;;;
2022/05/12 10:27:38;;;;;;;2.5;2.3;;;;;;;35.49;25.57813;940.1219;;;;
2022/05/12 10:30:07;;;;;;;3.8;2.1;;;;;;;36.03;26.18848;940.1121;;;;
2022/05/12 10:32:34;;;;;;;4;2.2;;;;;;;35.17;25.95801;940.1244;;;;
2022/05/12 10:34:59;;;;;;;4.2;2.6;;;;;;;34.4;28.01074;940.0471;;;;
2022/05/12 10:37:25;;;;;;;2.7;2.3;;;;;;;34.64;25.27734;940.0388;;;;
2022/05/12 10:39:50;;;;;;;2.9;1.9;;;;;;;34.53;26.79004;940.0408;;;;
2022/05/12 10:42:16;;;;;;;3.5;2.2;;;;;;;35.08;28.87305;940.0119;;;;
2022/05/12 10:44:41;;;;;;;4.8;2.2;;;;;;;34.93;28.06738;939.952;;;;
2022/05/12 10:47:06;;;;;;;2.2;2;;;;;;;35.37;26.62109;939.9427;;;;
2022/05/12 10:49:31;;;;;;;22.8;3.8;;;;;;;34.57;28.64746;939.8533;;;;
2022/05/12 10:51:56;;;;;;;2.8;1.9;;;;;;;34.36;28.97168;939.9228;;;;
2022/05/12 10:54:21;;;;;;;2.8;2.1;;;;;;;35.27;26.51855;939.918;;;;
2022/05/12 10:56:46;;;;;;;3.9;2.6;;;;;;;33.95;29.53516;939.9308;;;;
2022/05/12 10:59:12;;;;;;;3;2.2;;;;;;;33.36;30.03809;939.8586;;;;
2022/05/12 11:01:40;;;;;;;4.5;2.4;;;;;;;33.04;30.49805;939.9333;;;;
2022/05/12 11:04:05;;;;;;;4.3;2.2;;;;;;;33.13;29.31445;939.8943;;;;
2022/05/12 11:06:30;;;;;;;3.3;2.2;;;;;;;33.25;29.27441;939.8104;;;;
2022/05/12 11:08:55;;;;;;;3.3;2.5;;;;;;;33.2;31.08594;939.8295;;;;
2022/05/12 11:11:22;;;;;;;5.5;2.2;;;;;;;33.31;32.06641;939.788;;;;
2022/05/12 11:13:45;;;;;;;3.2;2.1;;;;;;;32.85;30.70117;939.8014;;;;
2022/05/12 11:16:11;;;;;;;2.8;2.4;;;;;;;33.53;29.02734;939.7877;;;;
2022/05/12 11:18:38;;;;;;;3.4;2.2;;;;;;;33.28;28.99902;939.741;;;;
2022/05/12 11:21:03;;;;;;;3.8;2.3;;;;;;;32.97;29.98828;939.8113;;;;
2022/05/12 11:23:29;;;;;;;2.9;2.3;;;;;;;32.5;30.3418;939.7944;;;;
2022/05/12 11:25:55;;;;;;;2.8;1.9;;;;;;;32.65;28.94727;939.7985;;;;
2022/05/12 11:30:48;;;;;;;4.5;2.2;;;;;;;32.11;29.51172;939.7885;;;;
2022/05/12 11:33:13;;;;;;;4.7;2.3;;;;;;;31.93;34.10254;939.7512;;;;
2022/05/12 11:35:44;;;;;;;3.5;2.2;;;;;;;30.46;35.37695;939.723;;;;
2022/05/12 11:38:10;;;;;;;2.6;2.1;;;;;;;30.46;32.29492;939.6812;;;;
2022/05/12 11:40:34;;;;;;;2.6;1.8;;;;;;;30.19;34.44824;939.7058;;;;
2022/05/12 11:45:28;;;;;;;2.5;1.8;;;;;;;30.56;31.03613;939.6527;;;;
2022/05/12 11:47:53;;;;;;;2.5;1.6;;;;;;;30.59;31.24121;939.655;;;;
2022/05/12 11:50:22;;;;;;;3.4;2.1;;;;;;;30.11;32.77148;939.6219;;;;
2022/05/12 11:52:45;;;;;;;3;2.2;;;;;;;29.99;35.20898;939.6653;;;;
2022/05/12 11:55:10;;;;;;;3.4;1.9;;;;;;;29.83;32.33398;939.6744;;;;
2022/05/12 11:57:38;;;;;;;5.4;2;;;;;;;29.99;31.89258;939.5753;;;;
2022/05/12 12:00:10;;;;;;;4.7;2.5;;;;;;;30.21;32.64746;939.5432;;;;
2022/05/12 12:02:38;;;;;;;3.2;2.2;;;;;;;30.11;31.5791;939.4771;;;;
2022/05/12 12:05:08;;;;;;;3;2.2;;;;;;;30.23;33.72363;939.4738;;;;
2022/05/12 12:07:35;;;;;;;3.3;2.3;;;;;;;30.33;31.48633;939.4433;;;;
2022/05/12 12:09:59;;;;;;;2.7;1.7;;;;;;;30.4;30.48828;939.3969;;;;
2022/05/12 12:12:25;;;;;;;2.4;1.8;;;;;;;30.3;33.86035;939.4155;;;;
2022/05/12 12:14:50;;;;;;;3.7;2.1;;;;;;;30.47;32.6543;939.4172;;;;
2022/05/12 12:17:19;;;;;;;6.7;2.3;;;;;;;30.53;30.96191;939.4052;;;;
2022/05/12 12:19:41;;;;;;;3;2;;;;;;;30.59;30.99023;939.382;;;;
2022/05/12 12:22:06;;;;;;;3.5;2;;;;;;;30.68;30.86523;939.338;;;;
2022/05/12 12:24:31;;;;;;;4.5;2.4;;;;;;;30.81;31.32813;939.2927;;;;
2022/05/12 12:26:58;;;;;;;12.9;2.9;;;;;;;30.7;33.86621;939.3008;;;;
2022/05/12 12:29:24;;;;;;;5.3;2;;;;;;;30.51;31.22363;939.3283;;;;
2022/05/12 12:31:49;;;;;;;2.1;1.9;;;;;;;30.62;30.69336;939.3093;;;;
2022/05/12 12:34:17;;;;;;;3.6;2;;;;;;;30.55;33.22168;939.2795;;;;
2022/05/12 12:36:46;;;;;;;3.7;2;;;;;;;30.03;33.83887;939.1462;;;;
2022/05/12 12:39:11;;;;;;;2.3;2.1;;;;;;;29.93;33.5459;939.1805;;;;
2022/05/12 12:41:36;;;;;;;4.3;2;;;;;;;29.77;33.66504;939.1279;;;;
2022/05/12 12:44:09;;;;;;;2.8;1.9;;;;;;;29.71;33.51758;939.1088;;;;
2022/05/12 12:46:32;;;;;;;5;1.8;;;;;;;29.58;34.23535;939.0883;;;;
2022/05/12 12:48:57;;;;;;;3;1.9;;;;;;;29.56;34.51953;939.0729;;;;
2022/05/12 12:51:22;;;;;;;7.8;2.3;;;;;;;29.26;34.13867;939.0438;;;;
2022/05/12 12:56:35;;;;;;;3.4;2.1;;;;;;;28.53;35.23828;939.015;;;;
2022/05/12 12:58:43;;;;;;;2.6;2;;;;;;;28.77;33.97168;939.0779;;;;
2022/05/12 13:01:08;;;;;;;3;1.8;;;;;;;28.54;35.29785;939.0111;;;;
2022/05/12 13:03:39;;;;;;;5.6;2.4;;;;;;;27.88;35.3291;939.0095;;;;
2022/05/12 13:06:07;;;;;;;3.8;2.1;;;;;;;27.57;37.60742;939.0447;;;;
2022/05/12 13:08:33;;;;;;;2.9;1.8;;;;;;;28;38.74805;938.998;;;;
2022/05/12 13:10:58;;;;;;;3.3;1.9;;;;;;;27.85;39.05566;939.0154;;;;
2022/05/12 13:13:25;;;;;;;3.1;2.1;;;;;;;27.99;34.42383;938.9763;;;;
2022/05/12 13:15:50;;;;;;;3.4;2.1;;;;;;;27.54;34.60254;939.0444;;;;
2022/05/12 13:18:17;;;;;;;2.8;1.8;;;;;;;27.27;37.38086;938.9719;;;;
2022/05/12 13:20:42;;;;;;;3.8;2;;;;;;;27.08;36.8916;938.9598;;;;
2022/05/12 13:23:08;;;;;;;2.2;2;;;;;;;27;38.22363;938.9786;;;;
2022/05/12 13:25:33;;;;;;;3.6;1.7;;;;;;;27.33;36.82813;938.9293;;;;
2022/05/12 13:27:58;;;;;;;3.3;2.1;;;;;;;27.45;39.875;938.9235;;;;
2022/05/12 13:30:29;;;;;;;2.2;1.8;;;;;;;27.42;37.52344;938.9138;;;;
2022/05/12 13:32:54;;;;;;;2.1;1.9;;;;;;;27.16;35.68848;938.8867;;;;
2022/05/12 13:35:19;;;;;;;2.2;2;;;;;;;27.36;38.93066;938.9319;;;;
2022/05/12 13:37:49;;;;;;;4.4;2.2;;;;;;;27.44;38.16699;938.8557;;;;
2022/05/12 13:40:14;;;;;;;4.1;1.9;;;;;;;27.78;38.13574;938.834;;;;
2022/05/12 13:42:40;;;;;;;3.4;2.3;;;;;;;27.97;37.16602;938.8164;;;;
2022/05/12 13:45:04;;;;;;;4.1;2.1;;;;;;;28.02;35.74414;938.7136;;;;
2022/05/12 13:47:32;;;;;;;8.2;2.4;;;;;;;28.01;35.54102;938.7639;;;;
2022/05/12 13:49:57;;;;;;;20.2;3.8;;;;;;;28;35.86133;938.7296;;;;
2022/05/12 13:52:24;;;;;;;3.3;2.4;;;;;;;27.94;37.66211;938.7271;;;;
2022/05/12 13:54:50;;;;;;;3.4;2.3;;;;;;;27.75;38.70313;938.6691;;;;
2022/05/12 13:57:15;;;;;;;8.2;2.1;;;;;;;27.85;37.22754;938.6666;;;;
2022/05/12 13:59:40;;;;;;;106.5;11.1;;;;;;;27.63;38.83496;938.6021;;;;
2022/05/12 14:02:05;;;;;;;22.2;3.3;;;;;;;27.78;36.8418;938.5675;;;;
2022/05/12 14:04:30;;;;;;;3.8;2.3;;;;;;;27.78;37.95703;938.6065;;;;
2022/05/12 14:06:57;;;;;;;4.8;2;;;;;;;27.7;36.21777;938.4958;;;;
2022/05/12 14:09:22;;;;;;;4.4;2.2;;;;;;;27.57;40.51563;938.5247;;;;
2022/05/12 14:11:50;;;;;;;3.8;2.3;;;;;;;27.94;39.34863;938.49;;;;
2022/05/12 14:19:19;;;;;;;3.9;2.4;;;;;;;27.92;38.89551;938.5016;;;;
2022/05/12 14:21:31;;;;;;;3.3;2.3;;;;;;;28.05;34.47461;938.4667;;;;
2022/05/12 14:23:56;;;;;;;3.5;2.2;;;;;;;28.27;35.24023;938.5175;;;;
2022/05/12 14:26:21;;;;;;;4.4;2.3;;;;;;;28;36.88379;938.4786;;;;
2022/05/12 14:28:46;;;;;;;5;2.3;;;;;;;28.26;34.41992;938.4542;;;;
2022/05/12 14:31:14;;;;;;;5.6;2.1;;;;;;;28.35;36.83984;938.4038;;;;
2022/05/12 14:33:39;;;;;;;2.7;2.1;;;;;;;28.62;35.00684;938.4293;;;;
2022/05/12 14:36:06;;;;;;;2.7;2.1;;;;;;;28.6;34.60156;938.4387;;;;
2022/05/12 14:38:30;;;;;;;4.4;2;;;;;;;28.23;36.68848;938.4593;;;;
2022/05/12 14:40:57;;;;;;;4.1;2.4;;;;;;;28.04;36.00684;938.4238;;;;
2022/05/12 14:43:22;;;;;;;2.3;2;;;;;;;27.96;35.91699;938.4289;;;;
2022/05/12 14:45:48;;;;;;;3.6;2;;;;;;;27.93;35.99805;938.4497;;;;
2022/05/12 14:48:13;;;;;;;5;2.3;;;;;;;27.35;38.39551;938.441;;;;
2022/05/12 14:50:41;;;;;;;2.6;2.2;;;;;;;27.15;38.58008;938.3716;;;;
2022/05/12 14:53:08;;;;;;;3.7;2.3;;;;;;;27.09;40.60254;938.3853;;;;
2022/05/12 14:55:31;;;;;;;4.7;2.5;;;;;;;27.26;37.43945;938.2773;;;;
2022/05/12 14:57:58;;;;;;;4.5;2.3;;;;;;;27.44;36.91992;938.3128;;;;
2022/05/12 15:00:23;;;;;;;2.3;2.1;;;;;;;27.67;35.97754;938.3169;;;;